This is the latest recevied weather packets stored in our database for station/object EA1AHA-13. If no packets are shown the sender has not sent any weather packets the latest 10 day(s).
| Time | Temp. | Humidity | Pressure | Rain* | Wind** | Luminosity | Snow |
|---|---|---|---|---|---|---|---|
| 1778082701 | 15° C | 74% | 1012.3 hPa | 0 mm | - | - | - |
| 1778082078 | 15.56° C | 71% | 1012.3 hPa | 0 mm | - | - | - |
| 1778081500 | 15.56° C | 73% | 1012.5 hPa | 0 mm | - | - | - |
| 1778080878 | 16.67° C | 68% | 1012.6 hPa | 0 mm | - | - | - |
| 1778080301 | 15.56° C | 68% | 1012.5 hPa | 0 mm | - | - | - |
| 1778079677 | 15.56° C | 70% | 1012.8 hPa | 0 mm | - | - | - |
| 1778079100 | 15.56° C | 72% | 1012.8 hPa | 0 mm | - | - | - |
| 1778078477 | 15.56° C | 68% | 1012.8 hPa | 0 mm | - | - | - |
| 1778077900 | 15.56° C | 69% | 1013 hPa | 0 mm | - | - | - |
| 1778077276 | 15° C | 75% | 1012.9 hPa | 0 mm | - | - | - |
| 1778076701 | 15° C | 75% | 1013 hPa | 0 mm | - | - | - |
| 1778076077 | 15° C | 74% | 1013.1 hPa | 0 mm | - | - | - |
| 1778075502 | 14.44° C | 73% | 1013 hPa | 0 mm | - | - | - |
| 1778074877 | 14.44° C | 75% | 1013.2 hPa | 0 mm | - | - | - |
| 1778074300 | 15° C | 74% | 1013.3 hPa | 0 mm | - | - | - |
| 1778073678 | 15.56° C | 71% | 1013.3 hPa | 0 mm | - | - | - |
| 1778073100 | 15.56° C | 72% | 1013.4 hPa | 0 mm | - | - | - |
| 1778072477 | 15.56° C | 70% | 1013.2 hPa | 0 mm | - | - | - |
| 1778071900 | 16.11° C | 68% | 1013.2 hPa | 0 mm | - | - | - |
| 1778071277 | 16.11° C | 65% | 1013.3 hPa | 0 mm | - | - | - |
| 1778070700 | 16.67° C | 66% | 1013.4 hPa | 0 mm | - | - | - |
| 1778070076 | 15.56° C | 69% | 1013.4 hPa | 0 mm | - | - | - |
| 1778069501 | 16.67° C | 68% | 1013.6 hPa | 0 mm | - | - | - |
| 1778068877 | 15.56° C | 71% | 1013.2 hPa | 0 mm | - | - | - |
| 1778068301 | 16.11° C | 67% | 1013.6 hPa | 0 mm | - | - | - |
* Rain latest hour (hover to see other rain measurements)
** Current wind speed in m/s (hover to see current wind gust speed)